Terminal Aerodrome Forecast
Issued by NWS Cleveland, OH

Home | Current Version | Previous Version | Text Only | Print | Product List | Glossary Off
Versions: 1 2 3 4 5 6 7 8 9 10 11 12 13 14 15 16 17 18

832
FTUS41 KCLE 211459 AAA
TAFMFD
TAF AMD
KMFD 211459Z 2115/2212 01008KT P6SM OVC015
      TEMPO 2115/2119 5SM -SHRA SCT009 OVC025
     FM211900 36010KT P6SM VCSH OVC022
     FM220300 33003KT P6SM SCT070 BKN200
     FM220800 30003KT 5SM BR SCT200=

USA.gov is the U.S. government's official web portal to all federal, state and local government web resources and services.